Airfield :
LOGIN :

Register | Disclaimer

   EN    FR    IT 

 










Legend :    VFR   Marginal VFR   IFR   Intensive IFR   Very Intensive IFR
Visi :
Ceiling :
>= 8 km
>= 3000ft
5 to 8 km
1000 to 3000 ft
1500m to 5 km
500 to 1000 ft
800 to 1500m
200 to 500 ft
< 800m
< 200 ft
Symbols :   Thunderstorms  Fog  Heavy snow  Heavy precipitations  Wind > 20 kt
SIGMETs :     Misc.  Thunderstorms  Icing  Turbulence  Mountain Waves  Volcanic Ashes







- Airport Elevation : 100 ft


EBDT - Schaffen

CURRENT METAR :
  • 170725Z 17006KT 9999 SCT065 BKN180 18/16 Q1015 BLU BLU

EXPIRED METARs :
  • 170655Z 19006KT 9999 -RA SCT080 BKN100 BKN180 18/15 Q1015 BLU BLU
  • 170625Z 17007KT 9999 FEW100 SCT150 BKN180 17/15 Q1015 BLU BLU
  • 170555Z 16006KT 9999 FEW060 SCT100 BKN180 16/15 Q1015 BLU BLU
  • 170525Z 17006KT 9999 FEW060 SCT100 BKN200 16/15 Q1015 BLU BLU
  • 170455Z 16006KT 9999 FEW060 SCT140 BKN200 15/15 Q1015 BLU BLU

TAF TAF EBDT
Valid from the 17 at 07:00 until the 17 at 16:00 UTC


170541Z 1707/1716 19007KT 9999 FEW050 BKN090 BKN140
TEMPO 1707/1716 4000 -RA SCT020 BKN040
BECMG 1710/1712 23012KT 9999 BKN045 BKN140
TEMPO 1713/1716 3500 -SHRA SCT018 BKN025
PROB30
TEMPO 1714/1716 23016G28KT 1500 -TSRA SCT007 BKN015CB BKN025
No reported NOTAMs for that airfield.



MET'MAP, your aeronautical weather chart ! - Copyright ORBIFLY December 2007 - Disclaimer

ORBIFLY MET'MAP TEAM :

Programming & Development : Alexandra Zaïnal
Concept & Development : Baudouin d'Aumeries
Co-Development & Prog : Marc-Olivier Méhu
Technical & hardware support : Manuel Goepfert

Contact : metmap@orbifly.com




SOURCES & CREDITS :

   NOAA